createdAt,value
2022-10-13T00:00:33.194Z,4.06
2022-10-13T00:04:36.170Z,4.06
2022-10-13T00:06:38.087Z,4.06
2022-10-13T00:08:39.171Z,4.06
2022-10-13T00:10:40.784Z,4.06
2022-10-13T00:14:43.989Z,4.06
2022-10-13T00:16:45.619Z,4.05
2022-10-13T00:18:47.414Z,4.05
2022-10-13T00:20:48.867Z,4.05
2022-10-13T00:22:50.310Z,4.06
2022-10-13T00:24:52.043Z,4.05
2022-10-13T00:26:53.167Z,4.05
2022-10-13T00:30:56.639Z,4.05
2022-10-13T00:32:58.364Z,4.05
2022-10-13T00:37:01.927Z,4.05
2022-10-13T00:39:03.198Z,4.05
2022-10-13T00:41:04.843Z,4.05
2022-10-13T00:43:06.583Z,4.05
2022-10-13T00:47:09.311Z,4.05
2022-10-13T00:49:10.660Z,4.05
2022-10-13T00:51:11.785Z,4.05
2022-10-13T00:53:13.752Z,4.05
2022-10-13T00:57:16.477Z,4.05
2022-10-13T00:59:17.590Z,4.05
2022-10-13T01:01:19.547Z,4.05
2022-10-13T01:03:21.332Z,4.05
2022-10-13T01:05:22.865Z,4.05
2022-10-13T01:07:24.800Z,4.05
2022-10-13T01:09:25.964Z,4.05
2022-10-13T01:13:28.681Z,4.05
2022-10-13T01:15:30.166Z,4.04
2022-10-13T01:19:33.313Z,4.04
2022-10-13T01:21:34.751Z,4.04
2022-10-13T01:23:36.128Z,4.04
2022-10-13T01:25:37.684Z,4.04
2022-10-13T01:29:40.895Z,4.04
2022-10-13T01:31:42.133Z,4.04
2022-10-13T01:33:43.457Z,4.04
2022-10-13T01:35:45.192Z,4.04
2022-10-13T01:37:46.493Z,4.04
2022-10-13T01:39:47.788Z,4.04
2022-10-13T01:41:49.267Z,4.04
2022-10-13T01:45:52.046Z,4.04
2022-10-13T01:47:53.157Z,4.04
2022-10-13T01:49:54.760Z,4.04
2022-10-13T01:51:56.389Z,4.04
2022-10-13T01:55:59.655Z,4.04
2022-10-13T01:58:01.459Z,4.04
2022-10-13T02:00:02.636Z,4.04
2022-10-13T02:02:04.365Z,4.04
2022-10-13T02:04:05.646Z,4.04
2022-10-13T02:06:07.348Z,4.04
2022-10-13T02:08:08.653Z,4.04
2022-10-13T02:12:11.495Z,4.04
2022-10-13T02:14:13.386Z,4.04
2022-10-13T02:16:14.388Z,4.04
2022-10-13T02:18:15.404Z,4.04
2022-10-13T02:20:16.738Z,4.04
2022-10-13T02:22:18.060Z,4.03
2022-10-13T02:24:19.081Z,4.04
2022-10-13T02:28:22.151Z,4.04
2022-10-13T02:30:23.370Z,4.03
2022-10-13T02:32:24.383Z,4.04
2022-10-13T02:34:25.844Z,4.04
2022-10-13T02:38:29.217Z,4.03
2022-10-13T02:40:30.800Z,4.03
2022-10-13T02:42:32.073Z,4.03
2022-10-13T02:44:33.248Z,4.03
2022-10-13T02:46:34.788Z,4.03
2022-10-13T02:48:36.177Z,4.03
2022-10-13T02:50:37.768Z,4.03
2022-10-13T02:54:40.709Z,4.03
2022-10-13T02:56:42.518Z,4.03
2022-10-13T02:58:44.289Z,4.03
2022-10-13T03:00:45.681Z,4.03
2022-10-13T03:02:47.080Z,4.03
2022-10-13T03:04:48.878Z,4.03
2022-10-13T03:06:50.534Z,4.03
2022-10-13T03:10:53.849Z,4.03
2022-10-13T03:12:55.181Z,4.03
2022-10-13T03:16:57.621Z,4.03
2022-10-13T03:21:00.481Z,4.03
2022-10-13T03:23:01.709Z,4.03
2022-10-13T03:25:03.092Z,4.03
2022-10-13T03:27:04.530Z,4.03
2022-10-13T03:29:05.736Z,4.03
2022-10-13T03:31:07.542Z,4.02
2022-10-13T03:33:08.657Z,4.02
2022-10-13T03:35:09.961Z,4.02
2022-10-13T03:37:11.317Z,4.02
2022-10-13T03:39:12.971Z,4.02
2022-10-13T03:41:14.222Z,4.02
2022-10-13T03:43:15.470Z,4.02
2022-10-13T03:45:16.842Z,4.02
2022-10-13T03:47:18.227Z,4.02
2022-10-13T03:49:19.989Z,4.02
2022-10-13T03:53:23.709Z,4.02
2022-10-13T03:55:24.853Z,4.02
2022-10-13T03:57:26.685Z,4.02
2022-10-13T03:59:30.785Z,4.02
2022-10-13T04:03:31.611Z,4.02
2022-10-13T04:05:32.972Z,4.02
2022-10-13T04:07:34.061Z,4.02
2022-10-13T04:09:35.491Z,4.02
2022-10-13T04:11:36.577Z,4.02
2022-10-13T04:13:38.084Z,4.02
2022-10-13T04:15:39.148Z,4.02
2022-10-13T04:19:41.586Z,4.02
2022-10-13T04:21:42.982Z,4.02
2022-10-13T04:23:44.241Z,4.02
2022-10-13T04:25:45.221Z,4.02
2022-10-13T04:27:46.882Z,4.02
2022-10-13T04:29:48.406Z,4.02
2022-10-13T04:33:51.350Z,4.02
2022-10-13T04:37:54.424Z,4.02
2022-10-13T04:41:57.728Z,4.02
2022-10-13T04:43:58.727Z,4.02
2022-10-13T04:45:59.732Z,4.01
2022-10-13T04:48:00.770Z,4.02
2022-10-13T04:52:03.401Z,4.02
2022-10-13T04:54:04.922Z,4.01
2022-10-13T04:56:06.754Z,4.01
2022-10-13T04:58:08.183Z,4.01
2022-10-13T05:02:10.974Z,4.01
2022-10-13T05:04:12.013Z,4.01
2022-10-13T05:08:15.038Z,4.01
2022-10-13T05:10:16.098Z,4.01
2022-10-13T05:12:17.859Z,4.01
2022-10-13T05:14:18.956Z,4.01
2022-10-13T05:18:22.266Z,4.01
2022-10-13T05:20:23.301Z,4.01
2022-10-13T05:22:24.417Z,4.01
2022-10-13T05:24:25.892Z,4.01
2022-10-13T05:26:27.459Z,4.01
2022-10-13T05:28:28.931Z,4.01
2022-10-13T05:30:30.779Z,4.01
2022-10-13T05:34:33.760Z,4.01
2022-10-13T05:36:34.768Z,4
2022-10-13T05:38:35.843Z,4.01
2022-10-13T05:40:37.438Z,4.01
2022-10-13T05:44:40.203Z,4
2022-10-13T05:46:41.245Z,4
2022-10-13T05:48:42.531Z,4
2022-10-13T05:50:44.154Z,4
2022-10-13T05:52:45.665Z,4.01
2022-10-13T05:54:46.994Z,4
2022-10-13T05:56:47.982Z,4
2022-10-13T05:58:49.327Z,4
2022-10-13T06:00:50.518Z,4
2022-10-13T06:04:52.910Z,4
2022-10-13T06:06:54.029Z,4
2022-10-13T06:08:55.421Z,4
2022-10-13T06:10:57.149Z,4
2022-10-13T06:12:58.507Z,4
2022-10-13T06:17:01.757Z,4
2022-10-13T06:19:03.494Z,4
2022-10-13T06:21:05.045Z,4
2022-10-13T06:23:06.157Z,4
2022-10-13T06:23:49.984Z,4
2022-10-13T06:25:50.930Z,4
2022-10-13T06:27:52.868Z,4
2022-10-13T06:29:54.254Z,4
2022-10-13T06:31:55.430Z,4
2022-10-13T06:33:57.270Z,4
2022-10-13T06:38:00.151Z,4
2022-10-13T06:40:01.893Z,4
2022-10-13T06:42:02.970Z,4
2022-10-13T06:44:04.023Z,4
2022-10-13T06:46:05.248Z,4
2022-10-13T06:48:06.145Z,4
2022-10-13T06:50:07.497Z,4
2022-10-13T06:54:10.112Z,4
2022-10-13T06:56:20.722Z,4
2022-10-13T06:58:13.162Z,4
2022-10-13T07:00:14.797Z,4
2022-10-13T07:02:15.858Z,4
2022-10-13T07:04:17.306Z,4
2022-10-13T07:06:18.628Z,3.99
2022-10-13T07:10:21.593Z,4
2022-10-13T07:12:23.391Z,4
2022-10-13T07:14:24.396Z,4
2022-10-13T07:16:26.331Z,4
2022-10-13T07:20:28.976Z,4
2022-10-13T07:22:30.211Z,4
2022-10-13T07:24:31.652Z,3.99
2022-10-13T07:26:32.815Z,4
2022-10-13T07:28:34.668Z,4
2022-10-13T07:30:36.290Z,4
2022-10-13T07:32:37.518Z,4
2022-10-13T07:36:40.006Z,4
2022-10-13T07:38:41.247Z,4.01
2022-10-13T07:40:42.701Z,4.01
2022-10-13T07:42:44.447Z,4.01
2022-10-13T07:44:45.503Z,4.01
2022-10-13T07:46:46.964Z,4.02
2022-10-13T07:48:48.666Z,4.01
2022-10-13T07:52:50.631Z,4.02
2022-10-13T07:54:51.748Z,4.02
2022-10-13T07:56:53.249Z,4.02
2022-10-13T07:58:54.849Z,4.03
2022-10-13T08:02:58.393Z,4.01
2022-10-13T08:04:59.449Z,4.02
2022-10-13T08:07:00.830Z,4.02
2022-10-13T08:09:01.712Z,4.02
2022-10-13T08:11:02.869Z,4.02
2022-10-13T08:13:04.535Z,4.02
2022-10-13T08:15:06.232Z,4.02
2022-10-13T08:19:07.975Z,4.02
2022-10-13T08:21:33.459Z,4.02
2022-10-13T08:23:10.847Z,4.02
2022-10-13T08:25:12.423Z,4.02
2022-10-13T08:27:13.608Z,4.02
2022-10-13T08:29:23.268Z,4.02
2022-10-13T08:31:17.144Z,4.02
2022-10-13T08:35:19.767Z,4.03
2022-10-13T08:37:20.961Z,4.04
2022-10-13T08:39:22.335Z,4.04
2022-10-13T08:41:23.618Z,4.05
2022-10-13T08:45:40.687Z,4.07
2022-10-13T08:47:29.052Z,4.07
2022-10-13T08:49:30.523Z,4.08
2022-10-13T08:51:32.130Z,4.08
2022-10-13T08:53:33.482Z,4.08
2022-10-13T08:55:35.264Z,4.09
2022-10-13T08:57:37.029Z,4.09
2022-10-13T09:01:39.386Z,4.09
2022-10-13T09:03:41.127Z,4.1
2022-10-13T09:05:42.822Z,4.1
2022-10-13T09:07:44.526Z,4.1
2022-10-13T09:09:45.644Z,4.11
2022-10-13T09:11:47.168Z,4.11
2022-10-13T09:13:48.778Z,4.11
2022-10-13T09:17:51.084Z,4.12
2022-10-13T09:19:52.432Z,4.12
2022-10-13T09:21:54.217Z,4.13
2022-10-13T09:23:55.891Z,4.13
2022-10-13T09:27:57.624Z,4.14
2022-10-13T09:29:58.823Z,4.14
2022-10-13T09:34:01.914Z,4.14
2022-10-13T09:36:03.342Z,4.15
2022-10-13T09:38:05.064Z,4.15
2022-10-13T09:40:06.287Z,4.15
2022-10-13T09:44:09.057Z,4.16
2022-10-13T09:46:10.711Z,4.16
2022-10-13T09:48:12.370Z,4.16
2022-10-13T09:50:21.755Z,4.16
2022-10-13T09:52:15.268Z,4.17
2022-10-13T09:56:17.126Z,4.17
2022-10-13T10:00:19.118Z,4.17
2022-10-13T10:02:21.405Z,4.17
2022-10-13T10:04:22.069Z,4.18
2022-10-13T10:06:24.103Z,4.18
2022-10-13T10:08:28.753Z,4.18
2022-10-13T10:10:25.930Z,4.18
2022-10-13T10:12:27.933Z,4.18
2022-10-13T10:16:29.636Z,4.19
2022-10-13T10:18:31.329Z,4.19
2022-10-13T10:20:32.840Z,4.19
2022-10-13T10:22:34.409Z,4.19
2022-10-13T10:26:36.938Z,4.19
2022-10-13T10:28:38.244Z,4.19
2022-10-13T10:32:41.035Z,4.19
2022-10-13T10:34:42.624Z,4.19
2022-10-13T10:36:43.669Z,4.19
2022-10-13T10:38:44.525Z,4.2
2022-10-13T10:42:51.223Z,4.19
2022-10-13T10:44:47.644Z,4.19
2022-10-13T10:46:48.385Z,4.2
2022-10-13T10:48:49.625Z,4.2
2022-10-13T10:50:50.500Z,4.2
2022-10-13T10:52:51.837Z,4.2
2022-10-13T10:54:53.494Z,4.2
2022-10-13T10:58:55.949Z,4.2
2022-10-13T11:00:57.194Z,4.2
2022-10-13T11:02:58.391Z,4.2
2022-10-13T11:05:03.420Z,4.2
2022-10-13T11:09:02.830Z,4.2
2022-10-13T11:11:04.460Z,4.2
2022-10-13T11:15:07.265Z,4.19
2022-10-13T11:17:08.302Z,4.19
2022-10-13T11:19:09.650Z,4.19
2022-10-13T11:21:10.596Z,4.19
2022-10-13T11:25:14.038Z,4.19
2022-10-13T11:27:15.005Z,4.19
2022-10-13T11:29:16.857Z,4.19
2022-10-13T11:31:18.534Z,4.19
2022-10-13T11:33:19.970Z,4.19
2022-10-13T11:37:22.011Z,4.18
2022-10-13T11:41:24.760Z,4.18
2022-10-13T11:43:26.285Z,4.18
2022-10-13T11:45:27.910Z,4.18
2022-10-13T11:47:28.861Z,4.18
2022-10-13T11:49:29.902Z,4.18
2022-10-13T11:51:31.236Z,4.18
2022-10-13T11:53:32.522Z,4.18
2022-10-13T11:57:35.033Z,4.18
2022-10-13T11:59:36.529Z,4.18
2022-10-13T12:01:38.068Z,4.18
2022-10-13T12:03:39.171Z,4.18
2022-10-13T12:07:41.672Z,4.18
2022-10-13T12:09:43.434Z,4.18
2022-10-13T12:13:45.795Z,4.17
2022-10-13T12:15:47.050Z,4.17
2022-10-13T12:17:48.237Z,4.17
2022-10-13T12:19:49.696Z,4.17
2022-10-13T12:23:52.800Z,4.17
2022-10-13T12:25:54.470Z,4.17
2022-10-13T12:27:56.230Z,4.17
2022-10-13T12:29:58.049Z,4.17
2022-10-13T12:31:59.466Z,4.17
2022-10-13T12:34:00.932Z,4.17
2022-10-13T12:36:02.333Z,4.17
2022-10-13T12:40:04.841Z,4.17
2022-10-13T12:42:06.634Z,4.17
2022-10-13T12:44:07.797Z,4.17
2022-10-13T12:46:09.208Z,4.17
2022-10-13T12:48:10.463Z,4.17
2022-10-13T12:52:13.415Z,4.17
2022-10-13T12:54:14.466Z,4.17
2022-10-13T12:56:15.539Z,4.17
2022-10-13T12:58:16.776Z,4.17
2022-10-13T13:00:17.742Z,4.17
2022-10-13T13:02:19.114Z,4.17
2022-10-13T13:06:20.767Z,4.17
2022-10-13T13:08:22.009Z,4.17
2022-10-13T13:11:06.690Z,4.16
2022-10-13T13:13:08.507Z,4.17
2022-10-13T13:17:10.914Z,4.17
2022-10-13T13:19:11.991Z,4.16
2022-10-13T13:21:13.535Z,4.16
2022-10-13T13:23:15.171Z,4.16
2022-10-13T13:25:16.338Z,4.16
2022-10-13T13:27:18.004Z,4.16
2022-10-13T13:29:19.045Z,4.16
2022-10-13T13:33:21.111Z,4.16
2022-10-13T13:35:22.338Z,4.16
2022-10-13T13:37:23.454Z,4.16
2022-10-13T13:39:25.181Z,4.16
2022-10-13T13:43:28.006Z,4.16
2022-10-13T13:45:29.518Z,4.16
2022-10-13T13:49:31.784Z,4.16
2022-10-13T13:51:33.181Z,4.16
2022-10-13T13:53:34.369Z,4.16
2022-10-13T13:55:35.665Z,4.16
2022-10-13T13:59:38.507Z,4.16
2022-10-13T14:01:40.133Z,4.16
2022-10-13T14:03:41.102Z,4.16
2022-10-13T14:05:42.498Z,4.16
2022-10-13T14:07:44.334Z,4.16
2022-10-13T14:09:45.638Z,4.16
2022-10-13T14:11:46.970Z,4.16
2022-10-13T14:15:49.084Z,4.15
2022-10-13T14:17:50.362Z,4.16
2022-10-13T14:19:51.440Z,4.16
2022-10-13T14:21:52.276Z,4.16
2022-10-13T14:25:54.960Z,4.16
2022-10-13T14:27:56.294Z,4.15
2022-10-13T14:29:57.263Z,4.16
2022-10-13T14:31:58.501Z,4.15
2022-10-13T14:34:00.175Z,4.15
2022-10-13T14:36:01.481Z,4.15
2022-10-13T14:38:03.191Z,4.16
2022-10-13T14:42:06.181Z,4.15
2022-10-13T14:44:07.248Z,4.15
2022-10-13T14:46:08.476Z,4.15
2022-10-13T14:48:09.616Z,4.15
2022-10-13T14:50:10.566Z,4.15
2022-10-13T14:52:12.026Z,4.15
2022-10-13T14:54:13.639Z,4.15
2022-10-13T14:58:16.563Z,4.15
2022-10-13T15:00:18.230Z,4.15
2022-10-13T15:02:19.898Z,4.15
2022-10-13T15:04:21.713Z,4.14
2022-10-13T15:06:23.519Z,4.14
2022-10-13T15:08:25.329Z,4.15
2022-10-13T15:10:26.502Z,4.15
2022-10-13T15:14:28.911Z,4.14
2022-10-13T15:16:30.354Z,4.14
2022-10-13T15:18:31.985Z,4.15
2022-10-13T15:20:33.154Z,4.14
2022-10-13T15:24:36.724Z,4.14
2022-10-13T15:26:37.697Z,4.15
2022-10-13T15:28:39.454Z,4.14
2022-10-13T15:30:41.220Z,4.14
2022-10-13T15:32:42.958Z,4.14
2022-10-13T15:34:43.891Z,4.14
2022-10-13T15:36:45.287Z,4.14
2022-10-13T15:40:48.951Z,4.14
2022-10-13T15:42:50.746Z,4.14
2022-10-13T15:45:10.674Z,4.14
2022-10-13T15:47:06.964Z,4.14
2022-10-13T15:48:54.478Z,4.14
2022-10-13T15:52:56.950Z,4.14
2022-10-13T15:56:59.410Z,4.14
2022-10-13T15:59:00.385Z,4.14
2022-10-13T16:01:02.166Z,4.14
2022-10-13T16:03:03.001Z,4.14
2022-10-13T16:07:06.224Z,4.14
2022-10-13T16:09:07.592Z,4.14
2022-10-13T16:11:09.228Z,4.14
2022-10-13T16:13:10.284Z,4.14
2022-10-13T16:15:11.299Z,4.13
2022-10-13T16:19:14.709Z,4.13
2022-10-13T16:21:18.714Z,4.14
2022-10-13T16:23:17.662Z,4.13
2022-10-13T16:25:19.117Z,4.13
2022-10-13T16:29:22.589Z,4.13
2022-10-13T16:31:23.914Z,4.13
2022-10-13T16:33:25.116Z,4.13
2022-10-13T16:35:26.830Z,4.13
2022-10-13T16:37:28.444Z,4.13
2022-10-13T16:39:29.796Z,4.13
2022-10-13T16:41:31.281Z,4.13
2022-10-13T16:43:32.628Z,4.13
2022-10-13T16:45:48.224Z,4.13
2022-10-13T16:47:34.729Z,4.13
2022-10-13T16:49:35.604Z,4.13
2022-10-13T16:51:37.091Z,4.13
2022-10-13T16:55:39.439Z,4.13
2022-10-13T16:57:41.228Z,4.13
2022-10-13T16:59:42.118Z,4.13
2022-10-13T17:01:44.011Z,4.13
2022-10-13T17:03:45.238Z,4.13
2022-10-13T17:05:46.648Z,4.13
2022-10-13T17:07:48.337Z,4.12
2022-10-13T17:11:51.171Z,4.13
2022-10-13T17:13:52.406Z,4.12
2022-10-13T17:15:53.525Z,4.13
2022-10-13T17:17:55.152Z,4.12
2022-10-13T17:19:56.418Z,4.12
2022-10-13T17:21:58.221Z,4.12
2022-10-13T17:24:00.102Z,4.12
2022-10-13T17:28:03.206Z,4.12
2022-10-13T17:30:04.861Z,4.12
2022-10-13T17:32:05.895Z,4.12
2022-10-13T17:34:07.190Z,4.12
2022-10-13T17:38:10.745Z,4.12
2022-10-13T17:40:12.044Z,4.12
2022-10-13T17:44:15.540Z,4.12
2022-10-13T17:46:35.449Z,4.12
2022-10-13T17:48:22.192Z,4.12
2022-10-13T17:50:20.050Z,4.12
2022-10-13T17:54:23.079Z,4.12
2022-10-13T17:56:24.856Z,4.12
2022-10-13T17:58:26.459Z,4.12
2022-10-13T18:00:28.251Z,4.12
2022-10-13T18:02:29.358Z,4.12
2022-10-13T18:04:30.818Z,4.12
2022-10-13T18:06:37.049Z,4.12
2022-10-13T18:10:56.978Z,4.12
2022-10-13T18:12:35.813Z,4.12
2022-10-13T18:14:36.787Z,4.12
2022-10-13T18:16:38.469Z,4.12
2022-10-13T18:20:41.671Z,4.12
2022-10-13T18:22:42.973Z,4.12
2022-10-13T18:24:44.171Z,4.12
2022-10-13T18:26:45.169Z,4.12
2022-10-13T18:28:46.661Z,4.12
2022-10-13T18:30:48.200Z,4.11
2022-10-13T18:32:49.719Z,4.11
2022-10-13T18:36:52.311Z,4.11
2022-10-13T18:38:53.252Z,4.11
2022-10-13T18:42:56.362Z,4.11
2022-10-13T18:44:57.977Z,4.11
2022-10-13T18:46:59.507Z,4.11
2022-10-13T18:49:01.218Z,4.11
2022-10-13T18:53:04.941Z,4.11
2022-10-13T18:55:06.458Z,4.11
2022-10-13T18:57:07.756Z,4.11
2022-10-13T18:59:08.744Z,4.11
2022-10-13T19:03:11.002Z,4.11
2022-10-13T19:05:12.741Z,4.11
2022-10-13T19:07:14.115Z,4.1
2022-10-13T19:09:15.431Z,4.11
2022-10-13T19:11:16.993Z,4.11
2022-10-13T19:13:18.376Z,4.11
2022-10-13T19:15:19.619Z,4.1
2022-10-13T19:19:21.734Z,4.11
2022-10-13T19:21:23.552Z,4.11
2022-10-13T19:23:25.295Z,4.1
2022-10-13T19:25:27.035Z,4.1
2022-10-13T19:27:28.576Z,4.1
2022-10-13T19:29:30.027Z,4.1
2022-10-13T19:31:31.607Z,4.1
2022-10-13T19:35:34.029Z,4.1
2022-10-13T19:37:35.306Z,4.1
2022-10-13T19:39:36.913Z,4.1
2022-10-13T19:41:38.291Z,4.1
2022-10-13T19:43:39.249Z,4.1
2022-10-13T19:45:40.743Z,4.1
2022-10-13T19:47:42.029Z,4.1
2022-10-13T19:51:44.108Z,4.1
2022-10-13T19:53:45.458Z,4.1
2022-10-13T19:54:33.015Z,4.1
2022-10-13T19:56:31.173Z,4.1
2022-10-13T19:58:32.469Z,4.1
2022-10-13T20:00:33.457Z,4.1
2022-10-13T20:02:34.946Z,4.1
2022-10-13T20:04:36.820Z,4.1
2022-10-13T20:06:38.047Z,4.1
2022-10-13T20:08:39.271Z,4.1
2022-10-13T20:12:41.828Z,4.1
2022-10-13T20:14:43.442Z,4.1
2022-10-13T20:16:44.674Z,4.1
2022-10-13T20:18:46.170Z,4.1
2022-10-13T20:20:47.332Z,4.1
2022-10-13T20:22:48.591Z,4.1
2022-10-13T20:24:49.733Z,4.1
2022-10-13T20:28:53.387Z,4.09
2022-10-13T20:30:54.213Z,4.09
2022-10-13T20:32:55.308Z,4.09
2022-10-13T20:34:57.007Z,4.09
2022-10-13T20:38:59.930Z,4.1
2022-10-13T20:41:01.299Z,4.1
2022-10-13T20:43:03.060Z,4.09
2022-10-13T20:45:04.883Z,4.09
2022-10-13T20:47:06.184Z,4.09
2022-10-13T20:49:12.115Z,4.09
2022-10-13T20:51:09.212Z,4.09
2022-10-13T20:55:11.635Z,4.09
2022-10-13T20:57:12.525Z,4.09
2022-10-13T20:59:14.323Z,4.09
2022-10-13T21:01:15.529Z,4.09
2022-10-13T21:03:16.932Z,4.09
2022-10-13T21:05:18.405Z,4.09
2022-10-13T21:07:20.048Z,4.09
2022-10-13T21:11:22.361Z,4.09
2022-10-13T21:13:23.356Z,4.09
2022-10-13T21:15:24.299Z,4.09
2022-10-13T21:17:25.968Z,4.09
2022-10-13T21:19:27.598Z,4.08
2022-10-13T21:21:29.080Z,4.08
2022-10-13T21:23:30.334Z,4.08
2022-10-13T21:27:33.159Z,4.09
2022-10-13T21:29:34.815Z,4.08
2022-10-13T21:31:36.591Z,4.08
2022-10-13T21:35:39.472Z,4.08
2022-10-13T21:37:41.172Z,4.08
2022-10-13T21:39:42.505Z,4.08
2022-10-13T21:41:44.382Z,4.08
2022-10-13T21:43:45.297Z,4.08
2022-10-13T21:45:46.327Z,4.08
2022-10-13T21:47:47.526Z,4.08
2022-10-13T21:49:48.887Z,4.08
2022-10-13T21:53:50.968Z,4.08
2022-10-13T21:55:51.880Z,4.08
2022-10-13T21:57:53.721Z,4.08
2022-10-13T21:59:55.226Z,4.08
2022-10-13T22:01:56.327Z,4.08
2022-10-13T22:03:58.151Z,4.08
2022-10-13T22:05:59.168Z,4.08
2022-10-13T22:10:01.794Z,4.08
2022-10-13T22:12:03.185Z,4.08
2022-10-13T22:14:04.140Z,4.08
2022-10-13T22:16:05.323Z,4.08
2022-10-13T22:20:07.952Z,4.08
2022-10-13T22:22:09.256Z,4.08
2022-10-13T22:26:12.199Z,4.08
2022-10-13T22:28:14.056Z,4.08
2022-10-13T22:30:15.609Z,4.08
2022-10-13T22:32:17.146Z,4.08
2022-10-13T22:36:19.517Z,4.08
2022-10-13T22:38:21.275Z,4.08
2022-10-13T22:40:23.144Z,4.08
2022-10-13T22:42:24.773Z,4.07
2022-10-13T22:44:26.060Z,4.08
2022-10-13T22:46:27.730Z,4.07
2022-10-13T22:48:29.264Z,4.07
2022-10-13T22:52:31.916Z,4.07
2022-10-13T22:54:32.964Z,4.07
2022-10-13T22:58:35.387Z,4.07
2022-10-13T23:02:37.748Z,4.07
2022-10-13T23:04:39.192Z,4.07
2022-10-13T23:06:40.085Z,4.07
2022-10-13T23:08:41.184Z,4.07
2022-10-13T23:10:42.855Z,4.07
2022-10-13T23:12:44.032Z,4.07
2022-10-13T23:14:45.521Z,4.07
2022-10-13T23:18:48.407Z,4.07
2022-10-13T23:20:53.126Z,4.07
2022-10-13T23:24:53.763Z,4.07
2022-10-13T23:26:54.833Z,4.07
2022-10-13T23:28:56.059Z,4.06
2022-10-13T23:30:57.698Z,4.07
2022-10-13T23:35:00.486Z,4.06
2022-10-13T23:37:02.380Z,4.06
2022-10-13T23:39:03.475Z,4.07
2022-10-13T23:41:04.880Z,4.06
2022-10-13T23:43:06.079Z,4.06
2022-10-13T23:45:07.615Z,4.06
2022-10-13T23:47:08.692Z,4.07
2022-10-13T23:51:11.688Z,4.06
2022-10-13T23:53:13.483Z,4.06
2022-10-13T23:55:14.964Z,4.06
2022-10-13T23:57:16.199Z,4.06
